Flight Track Log - Related Links

Times and Time Zones

All times are in EDT time to prevent confusion due to time zone crossing. See the EJA922 flight status page for this flight to view local times or setup timezone preferences in your user account.

Time Position Orientation Groundspeed Altitude Reporting Facility
EDT Latitude Longitude Course Direction KTS MPH feet Rate Location/Type
Sat 10:36:51 AM 35.8583 -78.8033 199° South 182 209 1,500  Level Washington Center
Sat 10:38:10 AM 35.7867 -78.8336 199° South 223 257 7,200 3,771 Climbing Washington Center
Sat 10:39:11 AM 35.7394 -78.8036 153° Southeast 207 238 10,300 2,826 Climbing Washington Center
Sat 10:40:11 AM 35.7758 -78.6922 68° East 184 212 12,900 2,492 Climbing Washington Center
Sat 10:41:09 AM 35.8250 -78.5689 64° Northeast 288 331 15,200 2,186 Climbing Washington Center
Sat 10:42:09 AM 35.8786 -78.4222 66° East 376 433 17,200 1,636 Climbing Washington Center
Sat 10:43:10 AM 35.9208 -78.3031 66° East 406 467 18,500 1,525 Climbing Washington Center
Sat 10:44:11 AM 35.9367 -78.1575 82° East 412 474 20,300 1,664 Climbing Washington Center
Sat 10:45:09 AM 35.9500 -78.0167 83° East 417 480 21,800 1,563 Climbing Washington Center
Sat 10:46:10 AM 35.9633 -77.8683 84° East 423 487 23,400 1,537 Climbing Washington Center
Sat 10:47:10 AM 35.9786 -77.7197 83° East 428 493 24,900 1,438 Climbing Washington Center
Sat 10:48:11 AM 36.0453 -77.5958 56° Northeast 420 483 26,300 1,059 Climbing Washington Center
Sat 10:49:09 AM 36.1206 -77.4692 54° Northeast 432 497 27,000 353 Climbing Washington Center
Sat 10:50:10 AM 36.2017 -77.3372 53° Northeast 455 524 27,000 49 Level Washington Center
Sat 10:51:11 AM 36.2872 -77.2025 52° Northeast 481 554 27,100 496 Climbing Washington Center
Sat 10:52:11 AM 36.3928 -77.0911 40° Northeast 489 563 28,000 942 Climbing Washington Center
Sat 10:53:12 AM 36.5006 -76.9872 38° Northeast 489 563 29,000 1,017 Climbing Washington Center
Sat 10:54:09 AM 36.6103 -76.8831 37° Northeast 489 563 30,000 1,026 Climbing Washington Center
Sat 10:55:09 AM 36.7178 -76.7786 38° Northeast 489 563 31,000 1,041 Climbing Washington Center
Sat 10:56:10 AM 36.8378 -76.6636 37° Northeast 494 568 32,100 1,024 Climbing Washington Center
Sat 10:57:12 AM 36.9492 -76.5536 38° Northeast 494 568 33,100 958 Climbing Washington Center
Sat 10:58:09 AM 37.0583 -76.4481 38° Northeast 494 568 34,000 915 Climbing Washington Center
Sat 10:59:10 AM 37.1697 -76.3400 38° Northeast 494 568 34,900 885 Climbing Washington Center
Sat 11:00:11 AM 37.2831 -76.2286 38° Northeast 494 568 35,800 908 Climbing Washington Center
Sat 11:01:09 AM 37.3878 -76.1356 35° Northeast 494 568 36,700 605 Climbing Washington Center
Sat 11:02:10 AM 37.5092 -76.0158 38° Northeast 506 582 37,000 149 Climbing Washington Center
Sat 11:03:10 AM 37.6222 -75.9039 38° Northeast 506 582 37,000  Level Washington Center
Sat 11:04:09 AM 37.7372 -75.7889 38° Northeast 514 592 37,000  Level Washington Center
Sat 11:05:09 AM 37.8542 -75.6733 38° Northeast 519 597 37,000  Level Washington Center
Sat 11:06:10 AM 37.9667 -75.5603 38° Northeast 519 597 37,000  Level Washington Center
Sat 11:07:10 AM 38.0856 -75.4492 36° Northeast 524 603 37,000 -200 Level Washington Center
Sat 11:08:10 AM 38.2147 -75.3672 26° Northeast 519 597 36,600 -694 Descending Washington Center
Sat 11:09:11 AM 38.3311 -75.2953 26° Northeast 512 589 35,600 -1,059 Descending Washington Center
Sat 11:10:09 AM 38.4581 -75.2100 28° Northeast 512 589 34,500 -1,059 Descending Washington Center
Sat 11:11:10 AM 38.5914 -75.1294 25° Northeast 512 589 33,500 -738 Descending Washington Center
Sat 11:12:11 AM 38.7203 -75.0408 28° Northeast 512 589 33,000 -248 Descending Washington Center
Sat 11:13:11 AM 38.8511 -74.9600 26° Northeast 512 589 33,000 -555 Level Washington Center
Sat 11:14:10 AM 38.9797 -74.8733 28° Northeast 512 589 31,900 -1,800 Descending Washington Center
Sat 11:15:11 AM 39.1128 -74.7836 28° Northeast 512 589 29,400 -2,521 Descending Washington Center
Sat 11:16:09 AM 39.2244 -74.6619 40° Northeast 524 603 26,900 -2,376 Descending Washington Center
Sat 11:18:33 AM 39.4831 -74.3806 40° Northeast 499 574 21,400 -2,254 Descending New York Center
Sat 11:19:34 AM 39.5800 -74.2750 40° Northeast 472 543 19,200 -1,686 Descending New York Center
Sat 11:20:34 AM 39.6897 -74.1592 39° Northeast 456 525 18,000 -1,700 Descending New York Center
Sat 11:21:34 AM 39.7867 -74.0531 40° Northeast 456 525 15,800 -2,150 Descending New York Center
Sat 11:22:34 AM 39.8831 -73.9603 36° Northeast 450 518 13,700 -2,269 Descending New York Center
Sat 11:23:33 AM 39.9658 -73.9017 28° Northeast 397 457 11,300 -1,350 Descending New York Center
Sat 11:24:34 AM 40.0467 -73.8431 29° Northeast 348 400 11,000 -843 Descending New York Center
Sat 11:25:34 AM 40.1253 -73.7869 29° Northeast 299 344 9,600 -1,500 Descending New York Center
Sat 11:26:18 AM 40.1833 -73.7500 26° Northeast 297 342 8,400 -1,673 Descending New York TRACON
Sat 11:27:18 AM 40.2500 -73.7000 30° Northeast 306 352 6,700 -1,700 Descending New York TRACON
Sat 11:28:18 AM 40.3167 -73.6500 30° Northeast 298 343 5,000 -1,750 Descending New York TRACON
Sat 11:29:18 AM 40.4000 -73.6000 25° Northeast 290 334 3,200 -1,500 Descending New York TRACON
Sat 11:30:18 AM 40.4667 -73.5500 30° Northeast 282 325 2,000 -550 Descending New York TRACON
Sat 11:31:18 AM 40.5333 -73.5000 30° Northeast 275 316 2,100 53 Climbing New York TRACON
Sat 11:32:12 AM 40.6000 -73.4667 21° North 278 320 2,100 -53 Level New York TRACON
Sat 11:33:12 AM 40.6667 -73.4167 30° Northeast 281 323 2,000  Descending New York TRACON
Sat 11:34:12 AM 40.7333 -73.3833 21° North 279 321 2,100  Climbing New York TRACON
Sat 11:35:06 AM 40.8000 -73.3500 21° North 243 280 2,000  Descending New York TRACON
Sat 11:36:06 AM 40.8500 -73.3167 27° Northeast 215 247 2,100  Climbing New York TRACON
Sat 11:37:06 AM 40.9000 -73.3500 333° Northwest 202 232 2,000 -50 Descending New York TRACON
Sat 11:38:06 AM 40.8667 -73.4000 229° Southwest 188 216 2,000 -250 Level New York TRACON
Sat 11:39:06 AM 40.8333 -73.4167 201° Southwest 164 189 1,500 -414 Descending New York TRACON
Sat 11:41:00 AM 40.7500 -73.4333 189° South 132 152 800 -368 Descending New York TRACON
Sat 11:42:00 AM 40.7288 -73.4134 204° Southwest  Level Estimated
Sat 11:49:00 AM 40.7288 -73.4134 204° Southwest  Level Estimated
Sat 11:50:00 AM 40.7288 -73.4134 204° Southwest  Level Estimated

Login

Don't have an account? Register now (free) for customized features, flight alerts, and more!